Time;durP1;ratioP1;P1;durP2;ratioP2;P2;SDS_P1;SDS_P2;PMS_P1;PMS_P2;Temp;Humidity;BMP_temperature;BMP_pressure;BME280_temperature;BME280_humidity;BME280_pressure;Samples;Min_cycle;Max_cycle;Signal;HPM_P1;HPM_P2
2021/11/14 00:01:45;;;;;;;107.93;19.42;;;8.80;99.90;;;;;;4169297;28;20037;-48
2021/11/14 00:03:49;;;;;;;109.93;15.93;;;8.80;99.90;;;;;;4167791;28;20068;-48
2021/11/14 00:05:51;;;;;;;31.42;17.15;;;8.80;99.90;;;;;;4178009;28;20110;-48
2021/11/14 00:07:54;;;;;;;;;;;8.80;99.90;;;;;;4174839;28;20481;-48
2021/11/14 00:10:02;;;;;;;46.40;16.90;;;8.90;99.90;;;;;;4178687;28;20003;-48
2021/11/14 00:12:04;;;;;;;27.45;16.35;;;8.80;99.90;;;;;;4175118;28;20044;-49
2021/11/14 00:14:06;;;;;;;;;;;8.90;99.90;;;;;;4177740;28;20052;-48
2021/11/14 00:16:13;;;;;;;101.05;18.70;;;8.80;99.90;;;;;;4174697;28;19948;-47
2021/11/14 00:18:15;;;;;;;38.78;17.95;;;8.80;99.90;;;;;;4176181;28;20562;-48
2021/11/14 00:20:17;;;;;;;130.63;24.17;;;8.70;99.90;;;;;;4174480;28;20404;-49
2021/11/14 00:22:19;;;;;;;184.38;29.13;;;8.80;99.90;;;;;;4177670;28;20064;-48
2021/11/14 00:24:22;;;;;;;33.90;21.27;;;8.80;99.90;;;;;;4176496;28;20041;-48
2021/11/14 00:26:24;;;;;;;140.60;26.92;;;8.80;99.90;;;;;;4179362;28;20040;-47
2021/11/14 00:28:27;;;;;;;28.58;19.33;;;8.90;99.90;;;;;;4177313;28;20492;-48
2021/11/14 00:30:29;;;;;;;43.28;21.55;;;8.90;99.90;;;;;;4177777;28;20068;-48
2021/11/14 00:32:31;;;;;;;78.78;19.92;;;8.90;99.90;;;;;;4175324;28;20080;-49
2021/11/14 00:34:35;;;;;;;29.40;17.90;;;8.90;99.90;;;;;;4178065;28;20045;-49
2021/11/14 00:36:41;;;;;;;80.93;17.25;;;8.90;99.90;;;;;;4174924;28;20135;-48
2021/11/14 00:38:44;;;;;;;85.65;17.15;;;8.90;99.90;;;;;;4177884;28;20507;-49
2021/11/14 00:40:47;;;;;;;75.85;15.68;;;8.90;99.90;;;;;;4177423;28;20061;-48
2021/11/14 00:42:50;;;;;;;90.65;17.85;;;8.90;99.90;;;;;;4178380;28;20080;-48
2021/11/14 00:44:52;;;;;;;133.65;19.02;;;8.80;99.90;;;;;;4177453;28;20744;-49
2021/11/14 00:46:54;;;;;;;96.15;18.77;;;8.80;99.90;;;;;;4173190;28;20041;-49
2021/11/14 00:48:56;;;;;;;76.78;17.00;;;8.70;99.90;;;;;;4176358;28;20412;-48
2021/11/14 00:51:02;;;;;;;109.97;19.05;;;8.80;99.90;;;;;;4178064;28;20457;-48
2021/11/14 00:53:05;;;;;;;112.28;19.23;;;8.70;99.90;;;;;;4174870;28;20115;-48
2021/11/14 00:55:11;;;;;;;78.88;19.25;;;8.70;99.90;;;;;;4178245;28;20064;-49
2021/11/14 00:57:13;;;;;;;108.38;24.50;;;8.70;99.90;;;;;;4174937;28;20541;-48
2021/11/14 00:59:15;;;;;;;206.38;26.35;;;8.60;99.90;;;;;;4172497;28;20693;-50
2021/11/14 01:01:18;;;;;;;90.22;21.70;;;8.60;99.90;;;;;;4173452;28;20072;-49
2021/11/14 01:03:21;;;;;;;42.63;17.50;;;8.60;99.90;;;;;;4167221;28;20045;-48
2021/11/14 01:05:24;;;;;;;;;;;8.60;99.90;;;;;;4175103;28;20061;-48
2021/11/14 01:07:26;;;;;;;20.33;14.38;;;8.50;99.90;;;;;;4177636;28;20560;-49
2021/11/14 01:09:28;;;;;;;21.17;15.60;;;8.60;99.90;;;;;;4174594;28;20029;-47
2021/11/14 01:11:30;;;;;;;19.25;16.23;;;8.60;99.90;;;;;;4177569;28;20041;-49
2021/11/14 01:13:33;;;;;;;16.63;14.70;;;8.60;99.90;;;;;;4198232;28;20127;-49
2021/11/14 01:15:37;;;;;;;17.80;14.05;;;8.60;99.90;;;;;;4177335;28;20113;-48
2021/11/14 01:17:40;;;;;;;16.13;14.50;;;8.60;99.90;;;;;;4176902;28;20045;-48
2021/11/14 01:19:42;;;;;;;18.98;14.82;;;8.70;99.90;;;;;;4176756;28;20536;-48
2021/11/14 01:21:46;;;;;;;14.85;13.30;;;8.60;99.90;;;;;;4177065;28;20692;-50
2021/11/14 01:23:50;;;;;;;13.48;12.15;;;8.60;99.90;;;;;;4177654;28;20041;-49
2021/11/14 01:25:52;;;;;;;12.88;11.65;;;8.60;99.90;;;;;;4179439;28;20131;-48
2021/11/14 01:27:55;;;;;;;15.77;12.77;;;8.70;99.90;;;;;;4168600;28;20439;-49
2021/11/14 01:29:57;;;;;;;19.58;14.38;;;8.70;99.90;;;;;;4175251;28;20128;-49
2021/11/14 01:32:00;;;;;;;25.77;18.52;;;8.60;99.90;;;;;;4174593;28;20091;-48
2021/11/14 01:34:02;;;;;;;22.23;17.40;;;8.60;99.90;;;;;;4175194;28;20120;-49
2021/11/14 01:36:04;;;;;;;20.80;16.30;;;8.60;99.90;;;;;;4177335;28;20443;-48
2021/11/14 01:38:07;;;;;;;22.05;16.73;;;8.60;99.90;;;;;;4178030;28;20477;-49
2021/11/14 01:40:13;;;;;;;16.70;14.95;;;8.60;99.90;;;;;;4177763;28;20501;-48
2021/11/14 01:42:15;;;;;;;18.80;14.68;;;8.60;99.90;;;;;;4180203;28;20075;-47
2021/11/14 01:44:17;;;;;;;13.43;12.23;;;8.60;99.90;;;;;;4177935;28;20117;-50
2021/11/14 01:46:20;;;;;;;15.23;13.77;;;8.70;99.90;;;;;;4180896;28;20063;-51
2021/11/14 01:48:23;;;;;;;15.65;13.98;;;8.80;99.90;;;;;;4178641;28;20036;-48
2021/11/14 01:50:25;;;;;;;;;;;8.70;99.90;;;;;;4178206;28;20512;-48
2021/11/14 01:52:29;;;;;;;15.02;13.50;;;8.70;99.90;;;;;;4179226;28;20011;-49
2021/11/14 01:54:31;;;;;;;17.50;14.13;;;8.70;99.90;;;;;;4178693;28;20128;-48
2021/11/14 01:56:33;;;;;;;16.20;14.60;;;8.80;99.90;;;;;;4177842;28;20121;-49
2021/11/14 01:58:36;;;;;;;14.98;13.60;;;8.80;99.90;;;;;;4178264;28;20511;-50
2021/11/14 02:00:50;;;;;;;23.30;17.20;;;8.80;99.90;;;;;;4179829;28;20107;-49
2021/11/14 02:02:53;;;;;;;24.73;18.40;;;8.80;99.90;;;;;;4175193;28;20041;-49
2021/11/14 02:04:55;;;;;;;24.42;17.98;;;8.80;99.90;;;;;;4172040;28;20057;-47
2021/11/14 02:06:57;;;;;;;30.08;19.10;;;8.70;99.90;;;;;;4173051;28;20056;-49
2021/11/14 02:09:00;;;;;;;47.42;18.20;;;8.70;99.90;;;;;;4179185;28;20037;-48
2021/11/14 02:11:03;;;;;;;22.52;17.65;;;8.70;99.90;;;;;;4180029;28;20103;-48
2021/11/14 02:13:07;;;;;;;21.08;16.83;;;8.70;99.90;;;;;;4176048;28;20116;-48
2021/11/14 02:15:09;;;;;;;20.15;16.70;;;8.70;99.90;;;;;;4179604;28;20056;-48
2021/11/14 02:17:11;;;;;;;23.83;17.77;;;8.70;99.90;;;;;;4172710;28;20048;-48
2021/11/14 02:19:13;;;;;;;19.98;16.67;;;8.70;99.90;;;;;;4170196;28;20045;-48
2021/11/14 02:21:16;;;;;;;22.83;16.67;;;8.70;99.90;;;;;;4176791;28;20140;-47
2021/11/14 02:23:20;;;;;;;19.50;15.60;;;8.80;99.90;;;;;;4179162;28;20041;-47
2021/11/14 02:25:23;;;;;;;60.22;26.27;;;8.80;99.90;;;;;;4178687;28;20087;-48
2021/11/14 02:27:25;;;;;;;;;;;8.70;99.90;;;;;;4179366;28;20068;-48
2021/11/14 02:29:27;;;;;;;56.97;22.15;;;8.70;99.90;;;;;;4176576;28;19920;-49
2021/11/14 02:31:33;;;;;;;48.88;19.20;;;8.70;99.90;;;;;;4178853;28;20041;-50
2021/11/14 02:33:36;;;;;;;88.22;21.05;;;8.70;99.90;;;;;;4175544;28;20047;-47
2021/11/14 02:35:42;;;;;;;22.08;18.73;;;8.70;99.90;;;;;;4178733;28;20129;-47
2021/11/14 02:37:44;;;;;;;19.70;17.40;;;8.70;99.90;;;;;;4174748;28;20137;-48
2021/11/14 02:39:46;;;;;;;24.70;17.42;;;8.90;99.90;;;;;;4178992;28;20045;-49
2021/11/14 02:41:49;;;;;;;18.50;15.18;;;8.80;99.90;;;;;;4177508;28;20071;-48
2021/11/14 02:43:54;;;;;;;24.83;19.65;;;8.90;99.90;;;;;;4164375;28;20034;-47
2021/11/14 02:45:56;;;;;;;26.30;16.88;;;8.90;99.90;;;;;;4176596;28;20041;-49
2021/11/14 02:47:58;;;;;;;;;;;8.90;99.90;;;;;;4179161;28;20044;-50
2021/11/14 02:50:01;;;;;;;56.47;19.40;;;8.80;99.90;;;;;;4176891;28;19924;-49
2021/11/14 02:52:03;;;;;;;;;;;8.80;99.90;;;;;;4171747;28;20037;-47
2021/11/14 02:54:05;;;;;;;287.43;25.53;;;8.80;99.90;;;;;;4178185;28;19927;-48
2021/11/14 02:56:09;;;;;;;213.15;21.38;;;8.80;99.90;;;;;;4179849;28;20069;-48
2021/11/14 02:58:11;;;;;;;146.45;21.15;;;8.70;99.90;;;;;;4175431;28;20053;-48
2021/11/14 03:00:21;;;;;;;94.47;19.05;;;8.60;99.90;;;;;;4166908;28;20034;-48
2021/11/14 03:02:23;;;;;;;117.72;19.98;;;8.60;99.90;;;;;;4176504;28;20044;-48
2021/11/14 03:04:27;;;;;;;29.40;17.58;;;8.60;99.90;;;;;;4178607;28;20028;-48
2021/11/14 03:06:30;;;;;;;56.92;21.15;;;8.70;99.90;;;;;;4174238;28;20084;-48
2021/11/14 03:08:33;;;;;;;99.00;22.10;;;8.70;99.90;;;;;;4179374;28;20036;-49
2021/11/14 03:10:35;;;;;;;213.30;22.52;;;8.60;99.90;;;;;;4176531;28;20124;-48
2021/11/14 03:12:37;;;;;;;334.50;26.20;;;8.60;99.90;;;;;;4177425;28;20040;-48
2021/11/14 03:14:39;;;;;;;369.52;28.30;;;8.60;99.90;;;;;;4179120;28;20060;-47
2021/11/14 03:16:42;;;;;;;;;;;8.60;99.90;;;;;;4178651;28;20045;-48
2021/11/14 03:18:44;;;;;;;274.20;26.77;;;8.50;99.90;;;;;;4175558;28;19920;-48
2021/11/14 03:20:49;;;;;;;185.98;25.13;;;8.50;99.90;;;;;;4178057;28;20076;-49
2021/11/14 03:22:51;;;;;;;26.42;17.75;;;8.50;99.90;;;;;;4177306;28;20489;-49
2021/11/14 03:24:53;;;;;;;59.97;20.20;;;8.60;99.90;;;;;;4176420;28;20132;-49
2021/11/14 03:26:55;;;;;;;23.08;18.55;;;8.60;99.90;;;;;;4177036;28;20065;-48
2021/11/14 03:28:57;;;;;;;25.42;18.33;;;8.60;99.90;;;;;;4177221;28;20120;-47
2021/11/14 03:31:00;;;;;;;25.70;18.02;;;8.60;99.90;;;;;;4178088;28;20095;-47
2021/11/14 03:33:06;;;;;;;;;;;8.70;99.90;;;;;;4176789;28;20625;-48
2021/11/14 03:35:09;;;;;;;37.90;18.67;;;8.70;99.90;;;;;;4174796;28;21404;-48
2021/11/14 03:37:14;;;;;;;28.52;18.83;;;8.70;99.90;;;;;;4171267;28;20048;-50
2021/11/14 03:39:16;;;;;;;25.48;18.65;;;8.70;99.90;;;;;;4178649;28;20512;-48
2021/11/14 03:41:22;;;;;;;26.65;15.98;;;8.70;99.90;;;;;;4176347;28;20041;-47
2021/11/14 03:43:25;;;;;;;18.20;13.45;;;8.70;99.90;;;;;;4178615;28;20512;-48
2021/11/14 03:45:27;;;;;;;25.77;15.20;;;8.70;99.90;;;;;;4173979;28;20044;-48
2021/11/14 03:47:29;;;;;;;21.83;16.10;;;8.70;99.90;;;;;;4176754;28;20033;-49
2021/11/14 03:49:32;;;;;;;18.83;16.27;;;8.70;99.90;;;;;;4176647;28;20531;-48
2021/11/14 03:51:34;;;;;;;19.98;15.50;;;8.70;99.90;;;;;;4176733;28;20127;-49
2021/11/14 03:53:36;;;;;;;24.60;17.15;;;8.70;99.90;;;;;;4176385;28;20040;-48
2021/11/14 03:55:39;;;;;;;26.63;18.45;;;8.70;99.90;;;;;;4168880;28;20064;-49
2021/11/14 03:57:43;;;;;;;24.65;18.52;;;8.70;99.90;;;;;;4166568;28;20048;-49
2021/11/14 03:59:45;;;;;;;29.92;17.15;;;8.70;99.90;;;;;;4176118;28;20037;-52
2021/11/14 04:01:48;;;;;;;46.80;20.15;;;8.80;99.90;;;;;;4168519;28;20417;-48
2021/11/14 04:03:52;;;;;;;20.10;16.63;;;8.70;99.90;;;;;;4175844;28;20523;-50
2021/11/14 04:05:54;;;;;;;22.48;17.60;;;8.80;99.90;;;;;;4172965;28;20336;-51
2021/11/14 04:07:57;;;;;;;18.25;15.38;;;8.70;99.90;;;;;;4177444;28;20041;-48
2021/11/14 04:09:59;;;;;;;20.60;16.13;;;8.80;99.90;;;;;;4173032;28;20144;-49
2021/11/14 04:12:03;;;;;;;;;;;8.80;99.90;;;;;;4196516;28;20484;-52
2021/11/14 04:14:05;;;;;;;16.58;13.35;;;8.80;99.90;;;;;;4166451;28;20386;-52
2021/11/14 04:16:08;;;;;;;18.90;15.43;;;8.80;99.90;;;;;;4178206;28;20076;-51
2021/11/14 04:18:10;;;;;;;16.20;13.93;;;8.70;99.90;;;;;;4169473;28;20508;-51
2021/11/14 04:20:15;;;;;;;23.85;15.93;;;8.70;99.90;;;;;;4171935;28;20046;-52
2021/11/14 04:22:17;;;;;;;14.35;12.75;;;8.70;99.90;;;;;;4169808;28;20037;-48
2021/11/14 04:24:19;;;;;;;13.93;12.52;;;8.70;99.90;;;;;;4177188;28;20189;-51
2021/11/14 04:26:21;;;;;;;10.95;9.93;;;8.70;99.90;;;;;;4171114;28;20041;-50
2021/11/14 04:28:24;;;;;;;13.07;11.80;;;8.80;99.90;;;;;;4178342;28;20041;-51
2021/11/14 04:30:27;;;;;;;12.60;11.32;;;8.80;99.90;;;;;;4175541;28;20111;-49
2021/11/14 04:32:29;;;;;;;11.85;10.70;;;8.90;99.90;;;;;;4173523;28;20057;-51
2021/11/14 04:34:31;;;;;;;13.10;11.93;;;8.90;99.90;;;;;;4174811;28;20068;-51
2021/11/14 04:36:33;;;;;;;15.73;12.85;;;9.00;99.90;;;;;;4177099;28;20045;-50
2021/11/14 04:38:36;;;;;;;15.80;14.18;;;8.90;99.90;;;;;;4176174;28;20086;-51
2021/11/14 04:40:39;;;;;;;14.10;12.73;;;9.00;99.90;;;;;;4178374;28;20064;-51
2021/11/14 04:42:42;;;;;;;15.63;14.00;;;9.00;99.90;;;;;;4171686;28;20029;-48
2021/11/14 04:44:44;;;;;;;19.63;15.27;;;8.90;99.90;;;;;;4178411;28;20057;-51
2021/11/14 04:46:46;;;;;;;16.08;14.50;;;8.90;99.90;;;;;;4172549;28;20057;-50
2021/11/14 04:48:48;;;;;;;16.98;14.35;;;8.90;99.90;;;;;;4172953;28;20047;-51
2021/11/14 04:50:52;;;;;;;14.98;13.68;;;8.90;99.90;;;;;;4172949;28;20116;-50
2021/11/14 04:52:55;;;;;;;15.77;14.05;;;8.90;99.90;;;;;;4172673;28;20807;-51
2021/11/14 04:54:57;;;;;;;15.70;12.77;;;8.90;99.90;;;;;;4175374;28;20041;-51
2021/11/14 04:56:59;;;;;;;14.70;13.35;;;8.90;99.90;;;;;;4177975;28;20116;-51
2021/11/14 04:59:01;;;;;;;11.60;10.63;;;9.00;99.90;;;;;;4176283;28;20120;-50
2021/11/14 05:01:03;;;;;;;10.32;9.50;;;9.00;99.90;;;;;;4178873;28;20456;-52
2021/11/14 05:03:05;;;;;;;9.15;8.55;;;8.90;99.90;;;;;;4178287;28;20037;-52
2021/11/14 05:05:08;;;;;;;9.57;8.68;;;8.90;99.90;;;;;;4179545;28;20064;-52
2021/11/14 05:07:10;;;;;;;11.48;10.75;;;8.90;99.90;;;;;;4179471;28;20485;-51
2021/11/14 05:09:12;;;;;;;10.13;9.32;;;8.90;99.90;;;;;;4181092;28;20108;-51
2021/11/14 05:11:14;;;;;;;12.20;10.40;;;8.80;99.90;;;;;;4179331;28;20065;-51
2021/11/14 05:13:18;;;;;;;13.45;12.25;;;8.80;99.90;;;;;;4181386;28;20041;-52
2021/11/14 05:15:20;;;;;;;11.77;10.75;;;8.80;99.90;;;;;;4177723;28;20121;-48
2021/11/14 05:17:22;;;;;;;23.52;16.17;;;8.80;99.90;;;;;;4178127;28;20049;-51
2021/11/14 05:19:24;;;;;;;68.07;17.27;;;8.80;99.90;;;;;;4176362;28;20041;-49
2021/11/14 05:21:26;;;;;;;16.27;14.57;;;8.90;99.90;;;;;;4173496;28;20039;-52
2021/11/14 05:23:28;;;;;;;15.07;13.60;;;8.80;99.90;;;;;;4176489;28;20029;-51
2021/11/14 05:25:31;;;;;;;18.77;15.07;;;8.80;99.90;;;;;;4181471;28;20068;-52
2021/11/14 05:27:34;;;;;;;105.00;17.65;;;8.80;99.90;;;;;;4177348;28;20489;-52
2021/11/14 05:29:36;;;;;;;19.65;15.30;;;8.80;99.90;;;;;;4180405;28;20522;-50
2021/11/14 05:31:38;;;;;;;51.58;15.50;;;8.80;99.90;;;;;;4175848;28;20599;-48
2021/11/14 05:33:41;;;;;;;49.05;14.85;;;8.80;99.90;;;;;;4179087;28;20040;-49
2021/11/14 05:35:45;;;;;;;38.83;15.27;;;8.80;99.90;;;;;;4177806;28;20057;-49
2021/11/14 05:37:47;;;;;;;19.55;14.25;;;8.80;99.90;;;;;;4179755;28;20053;-49
2021/11/14 05:39:49;;;;;;;18.20;14.50;;;8.70;99.90;;;;;;4178180;28;20496;-48
2021/11/14 05:41:51;;;;;;;16.77;14.10;;;8.70;99.90;;;;;;4180930;28;20121;-48
2021/11/14 05:43:53;;;;;;;17.63;14.00;;;8.70;99.90;;;;;;4178906;28;20044;-49
2021/11/14 05:45:55;;;;;;;14.13;12.85;;;8.70;99.90;;;;;;4178848;28;20107;-49
2021/11/14 05:47:57;;;;;;;15.05;13.63;;;8.70;99.90;;;;;;4179271;28;20048;-47
2021/11/14 05:49:59;;;;;;;9.93;9.30;;;8.70;99.90;;;;;;4180133;28;20133;-48
2021/11/14 05:52:01;;;;;;;10.25;9.63;;;8.70;99.90;;;;;;4180075;28;20480;-49
2021/11/14 05:54:04;;;;;;;8.32;7.90;;;8.80;99.90;;;;;;4176404;28;20072;-48
2021/11/14 05:56:07;;;;;;;11.43;10.63;;;8.70;99.90;;;;;;4179434;28;20073;-49
2021/11/14 05:58:12;;;;;;;10.27;9.52;;;8.70;99.90;;;;;;4178112;28;20645;-48
2021/11/14 06:00:21;;;;;;;10.73;10.00;;;8.80;99.90;;;;;;4178531;28;20647;-48
2021/11/14 06:02:40;;;;;;;12.00;10.85;;;8.80;99.90;;;;;;4173212;28;20033;-49
2021/11/14 06:06:50;;;;;;;19.77;15.27;;;8.70;99.90;;;;;;4168715;28;20047;-48
2021/11/14 06:08:52;;;;;;;13.77;12.40;;;8.80;99.90;;;;;;4172114;28;20656;-48
2021/11/14 06:10:55;;;;;;;15.30;13.82;;;8.80;99.90;;;;;;4178214;28;20098;-48
2021/11/14 06:12:57;;;;;;;15.27;13.95;;;8.90;99.90;;;;;;4178453;28;20489;-48
2021/11/14 06:14:59;;;;;;;17.52;15.68;;;8.90;99.90;;;;;;4178249;28;20094;-50
2021/11/14 06:17:02;;;;;;;20.92;15.85;;;8.80;99.90;;;;;;4169319;28;20429;-49
2021/11/14 06:19:04;;;;;;;;;;;8.70;99.90;;;;;;4175098;28;20447;-48
2021/11/14 06:21:06;;;;;;;14.80;13.30;;;8.80;99.90;;;;;;4175331;28;20009;-49
2021/11/14 06:23:08;;;;;;;13.82;12.63;;;8.80;99.90;;;;;;4170697;28;20064;-49
2021/11/14 06:25:11;;;;;;;13.27;12.38;;;8.80;99.90;;;;;;4180320;28;20060;-49
2021/11/14 06:27:14;;;;;;;11.10;10.20;;;8.90;99.90;;;;;;4177889;28;20060;-50
2021/11/14 06:29:16;;;;;;;11.60;10.57;;;8.80;99.90;;;;;;4178064;28;20037;-49
2021/11/14 06:31:18;;;;;;;11.88;11.10;;;8.80;99.90;;;;;;4171850;28;20070;-49
2021/11/14 06:33:21;;;;;;;11.75;10.95;;;8.80;99.90;;;;;;4178544;28;20389;-48
2021/11/14 06:35:26;;;;;;;17.85;12.02;;;8.80;99.90;;;;;;4177462;28;20058;-48
2021/11/14 06:37:28;;;;;;;15.30;13.90;;;8.80;99.90;;;;;;4179252;28;20441;-50
2021/11/14 06:39:30;;;;;;;;;;;8.90;99.90;;;;;;4177572;28;20064;-49
2021/11/14 06:41:32;;;;;;;17.27;15.15;;;8.90;99.90;;;;;;4178736;28;19932;-51
2021/11/14 06:43:35;;;;;;;23.88;19.80;;;8.90;99.90;;;;;;4178191;28;20063;-49
2021/11/14 06:45:37;;;;;;;125.32;24.48;;;8.90;99.90;;;;;;4179968;28;20037;-49
2021/11/14 06:47:39;;;;;;;30.27;22.55;;;8.90;99.90;;;;;;4176565;28;20068;-49
2021/11/14 06:49:42;;;;;;;90.80;19.98;;;8.80;99.90;;;;;;4176695;28;20037;-50
2021/11/14 06:51:44;;;;;;;19.30;17.38;;;8.90;99.90;;;;;;4176578;28;20060;-49
2021/11/14 06:53:46;;;;;;;18.55;15.63;;;9.00;99.90;;;;;;4179475;28;20091;-48
2021/11/14 06:55:48;;;;;;;22.77;16.35;;;9.00;99.90;;;;;;4177986;28;20127;-48
2021/11/14 06:57:50;;;;;;;23.95;16.92;;;9.00;99.90;;;;;;4178874;28;20073;-48
2021/11/14 06:59:52;;;;;;;23.13;17.17;;;9.00;99.90;;;;;;4177384;28;20135;-49
2021/11/14 07:01:54;;;;;;;21.73;18.80;;;9.00;99.90;;;;;;4165831;28;20069;-48
2021/11/14 07:03:56;;;;;;;18.05;16.17;;;9.10;99.90;;;;;;4177220;28;20072;-47
2021/11/14 07:05:58;;;;;;;16.85;15.15;;;9.10;99.90;;;;;;4166402;28;20149;-51
2021/11/14 07:08:00;;;;;;;16.25;14.07;;;9.10;99.90;;;;;;4178552;28;20120;-48
2021/11/14 07:10:05;;;;;;;15.15;13.75;;;9.10;99.90;;;;;;4177564;28;20037;-43
2021/11/14 07:12:08;;;;;;;15.68;13.15;;;9.10;99.90;;;;;;4172817;28;20037;-52
2021/11/14 07:14:10;;;;;;;;;;;9.10;99.90;;;;;;4179660;28;20500;-52
2021/11/14 07:16:12;;;;;;;15.68;13.38;;;9.10;99.90;;;;;;4175105;28;19967;-50
2021/11/14 07:18:14;;;;;;;14.00;12.90;;;9.10;99.90;;;;;;4177734;28;20045;-52
2021/11/14 07:20:17;;;;;;;15.25;13.85;;;9.20;99.90;;;;;;4174917;28;20056;-52
2021/11/14 07:22:20;;;;;;;17.75;15.85;;;9.30;99.90;;;;;;4177545;28;20043;-52
2021/11/14 07:24:22;;;;;;;13.40;12.20;;;9.30;99.90;;;;;;4178189;28;20037;-50
2021/11/14 07:26:24;;;;;;;12.65;11.32;;;9.30;99.90;;;;;;4179279;28;20069;-52
2021/11/14 07:28:26;;;;;;;14.93;13.80;;;9.40;99.90;;;;;;4174564;28;20488;-52
2021/11/14 07:30:32;;;;;;;14.45;13.15;;;9.40;99.90;;;;;;4163266;28;20045;-52
2021/11/14 07:32:34;;;;;;;12.25;11.32;;;9.50;99.90;;;;;;4175546;28;20056;-51
2021/11/14 07:34:37;;;;;;;10.60;9.60;;;9.50;99.90;;;;;;4179247;28;20041;-52
2021/11/14 07:36:39;;;;;;;9.10;8.40;;;9.50;99.90;;;;;;4191909;28;20378;-52
2021/11/14 07:38:42;;;;;;;8.95;8.45;;;9.60;99.90;;;;;;4167067;28;20452;-52
2021/11/14 07:40:43;;;;;;;;;;;9.70;99.90;;;;;;4176433;28;20163;-52
2021/11/14 07:42:46;;;;;;;14.68;13.43;;;9.70;99.90;;;;;;4163317;28;20051;-53
2021/11/14 07:44:47;;;;;;;14.07;12.68;;;9.80;99.90;;;;;;4176696;28;20504;-53
2021/11/14 07:46:50;;;;;;;13.32;12.20;;;9.90;99.90;;;;;;4178418;28;20506;-50
2021/11/14 07:48:53;;;;;;;10.75;10.25;;;9.90;99.90;;;;;;4177081;28;20065;-52
2021/11/14 07:50:57;;;;;;;11.30;10.50;;;10.00;99.90;;;;;;4170978;28;20037;-52
2021/11/14 07:53:00;;;;;;;13.80;12.60;;;10.00;99.90;;;;;;4177033;28;20132;-52
2021/11/14 07:55:06;;;;;;;11.43;10.25;;;9.90;99.90;;;;;;4177822;28;20084;-52
2021/11/14 07:57:08;;;;;;;12.98;11.85;;;9.90;99.90;;;;;;4176124;28;20060;-51
2021/11/14 07:59:10;;;;;;;13.40;12.07;;;10.00;99.90;;;;;;4176390;28;20144;-52
2021/11/14 08:01:12;;;;;;;13.50;12.40;;;10.20;99.90;;;;;;4174828;28;20068;-52
2021/11/14 08:03:15;;;;;;;14.85;13.43;;;10.20;99.90;;;;;;4175721;28;20037;-51
2021/11/14 08:05:18;;;;;;;14.43;13.10;;;10.10;99.90;;;;;;4179218;28;20074;-52
2021/11/14 08:07:23;;;;;;;15.70;14.40;;;10.10;99.90;;;;;;4178064;28;20029;-52
2021/11/14 08:09:25;;;;;;;18.83;16.92;;;10.20;99.90;;;;;;4174400;28;20041;-52
2021/11/14 08:11:27;;;;;;;16.20;14.90;;;10.30;99.90;;;;;;4164188;28;20044;-52
2021/11/14 08:13:29;;;;;;;14.60;13.10;;;10.30;99.90;;;;;;4177513;28;20041;-51
2021/11/14 08:15:33;;;;;;;16.90;15.05;;;10.30;99.90;;;;;;4177536;28;20983;-53
2021/11/14 08:17:35;;;;;;;13.30;12.30;;;10.40;99.90;;;;;;4177401;28;20056;-52
2021/11/14 08:19:37;;;;;;;13.40;12.35;;;10.40;99.90;;;;;;4173356;28;20048;-51
2021/11/14 08:21:39;;;;;;;10.80;10.05;;;10.40;99.90;;;;;;4178940;28;20037;-53
2021/11/14 08:23:41;;;;;;;10.48;9.77;;;10.50;99.90;;;;;;4167315;28;20124;-52
2021/11/14 08:25:44;;;;;;;11.48;10.32;;;10.40;99.90;;;;;;4177926;28;20068;-53
2021/11/14 08:27:47;;;;;;;11.80;10.90;;;10.40;99.90;;;;;;4173885;28;20048;-53
2021/11/14 08:29:50;;;;;;;9.73;9.13;;;10.50;99.90;;;;;;4168392;28;20052;-52
2021/11/14 08:31:52;;;;;;;8.68;8.18;;;10.60;99.90;;;;;;4164391;28;20047;-52
2021/11/14 08:33:54;;;;;;;8.80;8.32;;;10.50;99.90;;;;;;4178354;28;20047;-53
2021/11/14 08:35:56;;;;;;;10.38;9.20;;;10.60;99.90;;;;;;4179272;28;20091;-53
2021/11/14 08:38:00;;;;;;;11.32;10.30;;;10.70;99.90;;;;;;4178757;28;20591;-53
2021/11/14 08:40:05;;;;;;;50.70;36.25;;;10.70;99.90;;;;;;4170176;28;20045;-53
2021/11/14 08:42:08;;;;;;;11.82;11.13;;;10.70;99.90;;;;;;4179923;28;20045;-52
2021/11/14 08:44:10;;;;;;;9.73;9.25;;;10.60;99.90;;;;;;4179018;28;20087;-52
2021/11/14 08:46:12;;;;;;;10.07;9.38;;;10.60;99.90;;;;;;4180868;28;20049;-52
2021/11/14 08:48:14;;;;;;;9.95;9.45;;;10.60;99.90;;;;;;4207436;28;20040;-53
2021/11/14 08:50:17;;;;;;;10.55;9.77;;;10.50;99.90;;;;;;4180209;28;20037;-53
2021/11/14 08:52:19;;;;;;;10.60;9.80;;;10.50;99.90;;;;;;4173645;28;20544;-52
2021/11/14 08:54:23;;;;;;;7.95;7.38;;;10.50;99.90;;;;;;4171538;28;20045;-52
2021/11/14 08:56:32;;;;;;;9.15;8.63;;;10.50;99.90;;;;;;4170899;28;20044;-52
2021/11/14 08:58:35;;;;;;;9.80;8.85;;;10.60;99.90;;;;;;4180047;28;20065;-53
2021/11/14 09:00:38;;;;;;;11.52;10.43;;;10.60;99.90;;;;;;4177909;28;20041;-53
2021/11/14 09:02:40;;;;;;;;;;;10.70;99.90;;;;;;4182100;28;20036;-52
2021/11/14 09:04:42;;;;;;;11.25;9.68;;;10.70;99.90;;;;;;4175662;28;19921;-52
2021/11/14 09:06:45;;;;;;;9.02;8.48;;;10.80;99.90;;;;;;4178115;28;20033;-52
2021/11/14 09:08:50;;;;;;;8.48;8.05;;;10.80;99.90;;;;;;4173089;28;20033;-53
2021/11/14 09:10:52;;;;;;;7.95;7.55;;;10.80;99.90;;;;;;4171529;28;20084;-53
2021/11/14 09:12:54;;;;;;;8.27;7.57;;;10.90;99.90;;;;;;4175837;28;20033;-53
2021/11/14 09:14:56;;;;;;;;;;;11.00;99.90;;;;;;4180695;28;20617;-53
2021/11/14 09:17:01;;;;;;;8.00;7.55;;;11.10;99.90;;;;;;4175237;28;19973;-54
2021/11/14 09:19:05;;;;;;;10.02;9.52;;;11.20;99.90;;;;;;4180730;28;20048;-52
2021/11/14 09:21:08;;;;;;;11.23;10.32;;;11.30;99.90;;;;;;4178469;28;20544;-53
2021/11/14 09:23:11;;;;;;;8.57;8.02;;;11.40;99.90;;;;;;4180532;28;20455;-53
2021/11/14 09:25:14;;;;;;;9.18;8.48;;;11.30;99.90;;;;;;4180321;28;20048;-53
2021/11/14 09:27:16;;;;;;;11.63;10.55;;;11.40;99.90;;;;;;4180954;28;20123;-54
2021/11/14 09:29:18;;;;;;;10.85;10.02;;;11.40;99.90;;;;;;4177503;28;20112;-52
2021/11/14 09:31:20;;;;;;;11.13;10.38;;;11.40;99.90;;;;;;4164860;28;20092;-53
2021/11/14 09:33:26;;;;;;;12.52;11.38;;;11.40;99.90;;;;;;4175905;28;20040;-53
2021/11/14 09:35:28;;;;;;;10.15;9.35;;;11.40;99.90;;;;;;4178683;28;20083;-52
2021/11/14 09:37:30;;;;;;;11.88;10.82;;;11.40;99.90;;;;;;4178855;28;20041;-53
2021/11/14 09:39:32;;;;;;;9.70;9.00;;;11.40;99.90;;;;;;4180990;28;20512;-52
2021/11/14 09:41:42;;;;;;;11.35;10.23;;;11.30;99.90;;;;;;4179139;28;20037;-53
2021/11/14 09:43:45;;;;;;;11.80;10.65;;;11.20;99.90;;;;;;4163912;28;20448;-53
2021/11/14 09:46:07;;;;;;;10.85;9.88;;;11.10;99.90;;;;;;4179370;28;20043;-53
2021/11/14 09:48:10;;;;;;;12.13;10.85;;;11.00;99.90;;;;;;4177464;28;20428;-53
2021/11/14 09:50:12;;;;;;;11.57;10.88;;;11.00;99.90;;;;;;4179582;28;20041;-52
2021/11/14 09:52:15;;;;;;;11.23;10.07;;;11.00;99.90;;;;;;4174007;28;20091;-52
2021/11/14 09:54:17;;;;;;;;;;;11.00;99.90;;;;;;4178573;28;20087;-53
2021/11/14 09:56:19;;;;;;;12.53;11.50;;;11.00;99.90;;;;;;4181247;28;19940;-53
2021/11/14 09:58:21;;;;;;;;;;;11.00;99.90;;;;;;4178979;28;20033;-54
2021/11/14 10:00:26;;;;;;;11.48;10.77;;;11.00;99.90;;;;;;4178528;28;20492;-53
2021/11/14 10:02:28;;;;;;;11.35;10.50;;;11.10;99.90;;;;;;4179404;28;20040;-53
2021/11/14 10:04:31;;;;;;;11.52;10.73;;;11.00;99.90;;;;;;4177765;28;20041;-53
2021/11/14 10:06:33;;;;;;;12.13;11.23;;;11.00;99.90;;;;;;4177774;28;20121;-53
2021/11/14 10:08:37;;;;;;;;;;;11.00;99.90;;;;;;4174160;28;20087;-53
2021/11/14 10:10:49;;;;;;;10.93;10.27;;;11.00;99.90;;;;;;4180524;28;19952;-53
2021/11/14 10:12:52;;;;;;;14.40;11.95;;;11.00;99.90;;;;;;4179529;28;20044;-52
2021/11/14 10:15:24;;;;;;;13.20;12.05;;;11.30;99.90;;;;;;4177666;28;20473;-51
2021/11/14 10:17:27;;;;;;;13.65;12.40;;;11.20;99.90;;;;;;4110804;28;20133;-51
2021/11/14 10:19:29;;;;;;;;;;;11.20;99.90;;;;;;4113188;28;20059;-52
2021/11/14 10:21:32;;;;;;;12.68;11.40;;;11.20;99.90;;;;;;4110511;28;20005;-51
2021/11/14 10:23:36;;;;;;;14.82;13.48;;;11.10;99.90;;;;;;4108760;28;20545;-52
2021/11/14 10:25:39;;;;;;;15.23;13.80;;;11.20;99.90;;;;;;4110846;28;20038;-49
2021/11/14 10:27:42;;;;;;;15.02;13.68;;;11.20;99.90;;;;;;4110668;28;20043;-51
2021/11/14 10:29:51;;;;;;;13.77;12.48;;;11.20;99.90;;;;;;4111738;28;20047;-49
2021/11/14 10:31:54;;;;;;;12.45;11.52;;;11.30;99.90;;;;;;4113119;28;20586;-51
2021/11/14 10:33:56;;;;;;;13.73;12.73;;;11.30;99.90;;;;;;4107672;28;20050;-52
2021/11/14 10:36:00;;;;;;;11.85;10.93;;;11.30;99.90;;;;;;4108870;28;20146;-51
2021/11/14 10:38:05;;;;;;;15.88;14.32;;;11.30;99.90;;;;;;4106427;28;20059;-52